Robijn — PBEJ — position and weather

sailwx.info

Track history (hours):
 
Tides and Currents Weather Stations Pressure Air Temp Water Temp Dewpoint Dewpoint Depression Visibility Wind Speed Wind Dir Waves Ship Positions

Robijn

Last reported at 2018-Apr-26 07:30 UTC. Time now 2018-Apr-26 07:55 UTC.
Position N 60°07' E 019°14'.

Length 90 m; draft 5.4 m.

Type: Cargo ship. MMSI: 245909000.

Date/timePositionNaut miles runAvg speedWind from/ knotsBaromVisibWave heightAir tempDewpointWater temp
2018-Apr-26 07:30N 60°07' E 019°14'510.6
2018-Apr-26 07:00N 60°03' E 019°21'510.6
2018-Apr-26 06:30N 59°59' E 019°28'510.6
2018-Apr-26 06:00N 59°55' E 019°34'510.7
2018-Apr-26 05:30N 59°51' E 019°41'610.7
2018-Apr-26 04:58N 59°47' E 019°49'31 8.6
2018-Apr-26 01:24N 59°16' E 019°55'19610.5
2018-Apr-25 06:44N 56°21' E 017°07'210.7
2018-Apr-25 06:30N 56°19' E 017°06'610.7
2018-Apr-25 05:59N 56°13' E 017°02'510.5
2018-Apr-25 05:30N 56°09' E 016°57'5 8.5
2018-Apr-25 04:55N 56°05' E 016°53'410.6
2018-Apr-25 04:30N 56°02' E 016°47'510.6
2018-Apr-25 04:00N 55°60' E 016°38'510.8
2018-Apr-25 03:30N 55°57' E 016°30'510.6
2018-Apr-25 03:00N 55°54' E 016°22'510.6
2018-Apr-25 02:30N 55°52' E 016°14'510.7
2018-Apr-25 02:00N 55°49' E 016°06'510.7
2018-Apr-25 01:30N 55°46' E 015°58'510.6
2018-Apr-25 01:00N 55°43' E 015°50'510.6
2018-Apr-25 00:30N 55°41' E 015°41'510.7
2018-Apr-25 00:00N 55°38' E 015°33'510.6
2018-Apr-24 23:30N 55°35' E 015°25'510.5
2018-Apr-24 23:00N 55°33' E 015°17'510.3
2018-Apr-24 22:30N 55°31' E 015°09'510.4
2018-Apr-24 22:00N 55°28' E 015°00'510.5
2018-Apr-24 21:30N 55°26' E 014°52'510.7
2018-Apr-24 21:00N 55°24' E 014°44'510.5
2018-Apr-24 20:30N 55°21' E 014°36'510.8
2018-Apr-24 20:00N 55°16' E 014°31'510.6
2018-Apr-24 19:30N 55°12' E 014°25'510.6
2018-Apr-24 19:00N 55°08' E 014°19'510.6
2018-Apr-24 18:30N 55°04' E 014°13'510.4
2018-Apr-24 18:00N 55°01' E 014°06'5210.9
2018-Apr-24 13:14N 54°43' E 012°41'211.0
2018-Apr-24 13:00N 54°42' E 012°37'611.0
2018-Apr-24 12:30N 54°39' E 012°29'1610.5
2018-Apr-24 10:57N 54°26' E 012°12'510.9
2018-Apr-24 10:30N 54°25' E 012°04'1011.0
2018-Apr-24 09:38N 54°25' E 011°48'311.2
2018-Apr-24 09:19N 54°26' E 011°42'411.2
2018-Apr-24 09:00N 54°27' E 011°36'511.1
2018-Apr-24 08:30N 54°30' E 011°28'510.9
2018-Apr-24 08:00N 54°32' E 011°20'611.1
2018-Apr-24 07:30N 54°34' E 011°10'611.3
2018-Apr-24 07:00N 54°34' E 011°01'611.0
2018-Apr-24 06:30N 54°34' E 010°51'611.0
2018-Apr-24 06:00N 54°33' E 010°42'610.9
2018-Apr-24 05:30N 54°32' E 010°32'25 3.5
2018-Apr-23 22:15N 54°21' E 009°53'2 5.3
2018-Apr-23 21:58N 54°22' E 009°51'3 6.7
2018-Apr-23 21:30N 54°21' E 009°46'0 1.0
2018-Apr-23 21:00N 54°21' E 009°45'3 5.6
2018-Apr-23 20:30N 54°18' E 009°43'4 7.8
2018-Apr-23 20:00N 54°16' E 009°38'4 7.7
2018-Apr-23 19:30N 54°12' E 009°34'4 8.8
2018-Apr-23 19:00N 54°11' E 009°28'4 8.7
2018-Apr-23 18:30N 54°09' E 009°21'4 8.5
2018-Apr-23 18:00N 54°05' E 009°19'4 8.3
2018-Apr-23 17:30N 54°00' E 009°18'4 8.8
2018-Apr-23 17:00N 53°57' E 009°14'4 8.2
2018-Apr-23 16:30N 53°54' E 009°09'0 0.0
2018-Apr-23 16:00N 53°54' E 009°09'1 1.6
2018-Apr-23 15:30N 53°53' E 009°08'0 0.8
2018-Apr-23 15:00N 53°53' E 009°07'0 0.1
2018-Apr-23 14:30N 53°53' E 009°07'1 1.0
2018-Apr-23 14:00N 53°53' E 009°06'0 0.4
2018-Apr-23 13:31N 53°53' E 009°06'2 4.5
2018-Apr-23 13:00N 53°52' E 009°02'4 7.6
2018-Apr-23 12:30N 53°51' E 008°56'4 7.4
2018-Apr-23 12:00N 53°50' E 008°50'3 6.5
2018-Apr-23 11:30N 53°51' E 008°45'3 6.2
2018-Apr-23 11:00N 53°54' E 008°42'3 6.1
2018-Apr-23 10:30N 53°56' E 008°39'3 5.8
2018-Apr-23 10:00N 53°58' E 008°35'3 6.8
2018-Apr-23 09:30N 53°58' E 008°29'3 6.4
2018-Apr-23 09:00N 53°59' E 008°24'4 7.2
2018-Apr-23 08:29N 53°60' E 008°17'4 8.6
2018-Apr-23 08:00N 53°59' E 008°10'4 8.4
2018-Apr-23 07:29N 53°58' E 008°03'4 8.8
2018-Apr-23 07:00N 53°57' E 007°56'9010.3
2018-Apr-22 22:15N 53°34' E 005°29'310.8
2018-Apr-22 22:00N 53°33' E 005°25'510.8
2018-Apr-22 21:30N 53°31' E 005°16'510.6
2018-Apr-22 21:00N 53°30' E 005°08'510.7
2018-Apr-22 20:30N 53°28' E 004°60'510.5
2018-Apr-22 20:00N 53°26' E 004°51'510.4
2018-Apr-22 19:30N 53°23' E 004°44'510.1
2018-Apr-22 19:00N 53°19' E 004°39'510.0
2018-Apr-22 18:30N 53°14' E 004°36'5 9.8
2018-Apr-22 18:00N 53°10' E 004°33'5 9.6
2018-Apr-22 17:30N 53°06' E 004°29'5 9.4
2018-Apr-22 17:00N 53°02' E 004°24'5 9.3
2018-Apr-22 16:30N 52°58' E 004°20'4 9.0
2018-Apr-22 16:00N 52°54' E 004°17'5 9.0
2018-Apr-22 15:30N 52°50' E 004°13'5 9.0
2018-Apr-22 14:59N 52°46' E 004°08'30 8.9
2018-Apr-22 11:40N 52°26' E 003°32'2 9.3
2018-Apr-22 11:28N 52°25' E 003°30'4 9.6
2018-Apr-22 11:00N 52°22' E 003°25'6 9.9
2018-Apr-22 10:24N 52°17' E 003°19'410.2
2018-Apr-22 10:00N 52°14' E 003°15'510.5
2018-Apr-22 09:29N 52°10' E 003°09'1510.8
2018-Apr-22 08:05N 51°58' E 002°54'1411.6
2018-Apr-22 06:54N 51°47' E 002°40'512.0
2018-Apr-22 06:30N 51°44' E 002°35'612.1
2018-Apr-22 06:00N 51°39' E 002°29'612.1
2018-Apr-22 05:30N 51°34' E 002°23'612.3
2018-Apr-22 05:00N 51°29' E 002°17'611.8
2018-Apr-22 04:30N 51°24' E 002°12'611.9
2018-Apr-22 04:00N 51°19' E 002°08'611.8
2018-Apr-22 03:30N 51°14' E 002°03'611.9
2018-Apr-22 03:00N 51°11' E 001°55'611.8
2018-Apr-22 02:30N 51°07' E 001°47'611.9
2018-Apr-22 02:00N 51°03' E 001°41'611.2
2018-Apr-22 01:29N 50°59' E 001°35'1010.0
2018-Apr-22 00:31N 50°50' E 001°27'3 9.5
2018-Apr-22 00:14N 50°48' E 001°26'3 9.4
2018-Apr-21 23:53N 50°45' E 001°25'4 9.0
2018-Apr-21 23:26N 50°41' E 001°22'5 9.3
2018-Apr-21 22:54N 50°37' E 001°17'4 9.5
2018-Apr-21 22:30N 50°35' E 001°12'10 9.4
2018-Apr-21 21:26N 50°29' E 000°60'5 9.0
2018-Apr-21 20:52N 50°27' E 000°52'4 9.2
2018-Apr-21 20:29N 50°26' E 000°47'7 9.0
2018-Apr-21 19:42N 50°24' E 000°36'2 8.9
2018-Apr-21 19:28N 50°24' E 000°33'4 8.9
2018-Apr-21 18:58N 50°23' E 000°26'5 8.8
2018-Apr-21 18:25N 50°21' E 000°19'4 8.7
2018-Apr-21 18:00N 50°21' E 000°14'4 8.8
2018-Apr-21 17:30N 50°20' E 000°07'4 9.0
2018-Apr-21 17:00N 50°19' W 000°00'5 9.1
2018-Apr-21 16:30N 50°17' W 000°07'5 9.3
2018-Apr-21 16:00N 50°16' W 000°14'5 9.5
2018-Apr-21 15:30N 50°15' W 000°21'5 9.9
2018-Apr-21 15:00N 50°13' W 000°29'510.5
2018-Apr-21 14:30N 50°12' W 000°36'611.2
2018-Apr-21 13:59N 50°10' W 000°45'612.0
2018-Apr-21 13:29N 50°08' W 000°54'612.5
2018-Apr-21 13:00N 50°06' W 001°03'612.9
2018-Apr-21 12:30N 50°05' W 001°12'713.2
2018-Apr-21 12:00N 50°03' W 001°22'713.5
2018-Apr-21 11:30N 50°02' W 001°33'713.6
2018-Apr-21 11:00N 50°00' W 001°43'713.4
2018-Apr-21 10:30N 49°59' W 001°53'613.1
2018-Apr-21 10:00N 49°57' W 002°03'612.4
2018-Apr-21 09:30N 49°55' W 002°12'1811.0
2018-Apr-21 07:51N 49°50' W 002°39'410.2
2018-Apr-21 07:30N 49°49' W 002°44'5 9.8
2018-Apr-21 07:00N 49°47' W 002°52'5 9.4
2018-Apr-21 06:30N 49°45' W 002°58'5 9.2
2018-Apr-21 06:00N 49°43' W 003°04'5 9.1
2018-Apr-21 05:30N 49°40' W 003°10'4 9.0
2018-Apr-21 05:00N 49°38' W 003°16'4 8.6
2018-Apr-21 04:30N 49°36' W 003°22'5 8.6
2018-Apr-21 03:59N 49°34' W 003°28'4 8.6
2018-Apr-21 03:28N 49°32' W 003°34'4 8.6
2018-Apr-21 02:58N 49°30' W 003°40'13 8.7
2018-Apr-21 01:30N 49°23' W 003°57'331 9.2
2018-Apr-19 13:34N 44°20' W 007°15'2 9.9
2018-Apr-19 13:24N 44°19' W 007°15'4 9.9
2018-Apr-19 13:00N 44°15' W 007°16'510.2
2018-Apr-19 12:28N 44°10' W 007°18'510.4
2018-Apr-19 12:00N 44°05' W 007°20'510.6
2018-Apr-19 11:29N 43°60' W 007°22'510.4
2018-Apr-19 11:00N 43°55' W 007°24'510.5
2018-Apr-19 10:30N 43°50' W 007°25'510.2
2018-Apr-19 10:00N 43°45' W 007°27'1 0.0
2018-Apr-17 16:06N 43°43' W 007°27'1 6.7
2018-Apr-17 16:00N 43°44' W 007°27'1 2.1
2018-Apr-17 15:30N 43°44' W 007°25'1 0.8
2018-Apr-17 14:32N 43°44' W 007°25'0 0.0
2018-Apr-17 14:26N 43°44' W 007°25'0 0.1
2018-Apr-17 13:59N 43°44' W 007°25'0 0.1
2018-Apr-17 13:17N 43°44' W 007°25'0 0.2
2018-Apr-17 12:58N 43°44' W 007°25'3 6.7
2018-Apr-17 12:30N 43°44' W 007°20'4 7.9
2018-Apr-17 12:00N 43°45' W 007°15'4610.5
2018-Apr-17 07:37N 43°39' W 006°12'110.6
2018-Apr-17 07:30N 43°39' W 006°10'510.5
2018-Apr-17 06:59N 43°38' W 006°03'  
Track history (hours):
 
Tides and Currents Weather Stations Pressure Air Temp Water Temp Dewpoint Dewpoint Depression Visibility Wind Speed Wind Dir Waves Ship Positions

Robijn

Last reported at 2018-Apr-26 07:30 UTC. Time now 2018-Apr-26 07:55 UTC.
Position N 60°07' E 019°14'.

Length 90 m; draft 5.4 m.

Type: Cargo ship. MMSI: 245909000.

Date/timePositionNaut miles runAvg speedWind from/ knotsBaromVisibWave heightAir tempDewpointWater temp
2018-Apr-26 07:30N 60°07' E 019°14'510.6
2018-Apr-26 07:00N 60°03' E 019°21'510.6
2018-Apr-26 06:30N 59°59' E 019°28'510.6
2018-Apr-26 06:00N 59°55' E 019°34'510.7
2018-Apr-26 05:30N 59°51' E 019°41'610.7
2018-Apr-26 04:58N 59°47' E 019°49'31 8.6
2018-Apr-26 01:24N 59°16' E 019°55'19610.5
2018-Apr-25 06:44N 56°21' E 017°07'210.7
2018-Apr-25 06:30N 56°19' E 017°06'610.7
2018-Apr-25 05:59N 56°13' E 017°02'510.5
2018-Apr-25 05:30N 56°09' E 016°57'5 8.5
2018-Apr-25 04:55N 56°05' E 016°53'410.6
2018-Apr-25 04:30N 56°02' E 016°47'510.6
2018-Apr-25 04:00N 55°60' E 016°38'510.8
2018-Apr-25 03:30N 55°57' E 016°30'510.6
2018-Apr-25 03:00N 55°54' E 016°22'510.6
2018-Apr-25 02:30N 55°52' E 016°14'510.7
2018-Apr-25 02:00N 55°49' E 016°06'510.7
2018-Apr-25 01:30N 55°46' E 015°58'510.6
2018-Apr-25 01:00N 55°43' E 015°50'510.6
2018-Apr-25 00:30N 55°41' E 015°41'510.7
2018-Apr-25 00:00N 55°38' E 015°33'510.6
2018-Apr-24 23:30N 55°35' E 015°25'510.5
2018-Apr-24 23:00N 55°33' E 015°17'510.3
2018-Apr-24 22:30N 55°31' E 015°09'510.4
2018-Apr-24 22:00N 55°28' E 015°00'510.5
2018-Apr-24 21:30N 55°26' E 014°52'510.7
2018-Apr-24 21:00N 55°24' E 014°44'510.5
2018-Apr-24 20:30N 55°21' E 014°36'510.8
2018-Apr-24 20:00N 55°16' E 014°31'510.6
2018-Apr-24 19:30N 55°12' E 014°25'510.6
2018-Apr-24 19:00N 55°08' E 014°19'510.6
2018-Apr-24 18:30N 55°04' E 014°13'510.4
2018-Apr-24 18:00N 55°01' E 014°06'5210.9
2018-Apr-24 13:14N 54°43' E 012°41'211.0
2018-Apr-24 13:00N 54°42' E 012°37'611.0
2018-Apr-24 12:30N 54°39' E 012°29'1610.5
2018-Apr-24 10:57N 54°26' E 012°12'510.9
2018-Apr-24 10:30N 54°25' E 012°04'1011.0
2018-Apr-24 09:38N 54°25' E 011°48'311.2
2018-Apr-24 09:19N 54°26' E 011°42'411.2
2018-Apr-24 09:00N 54°27' E 011°36'511.1
2018-Apr-24 08:30N 54°30' E 011°28'510.9
2018-Apr-24 08:00N 54°32' E 011°20'611.1
2018-Apr-24 07:30N 54°34' E 011°10'611.3
2018-Apr-24 07:00N 54°34' E 011°01'611.0
2018-Apr-24 06:30N 54°34' E 010°51'611.0
2018-Apr-24 06:00N 54°33' E 010°42'610.9
2018-Apr-24 05:30N 54°32' E 010°32'25 3.5
2018-Apr-23 22:15N 54°21' E 009°53'2 5.3
2018-Apr-23 21:58N 54°22' E 009°51'3 6.7
2018-Apr-23 21:30N 54°21' E 009°46'0 1.0
2018-Apr-23 21:00N 54°21' E 009°45'3 5.6
2018-Apr-23 20:30N 54°18' E 009°43'4 7.8
2018-Apr-23 20:00N 54°16' E 009°38'4 7.7
2018-Apr-23 19:30N 54°12' E 009°34'4 8.8
2018-Apr-23 19:00N 54°11' E 009°28'4 8.7
2018-Apr-23 18:30N 54°09' E 009°21'4 8.5
2018-Apr-23 18:00N 54°05' E 009°19'4 8.3
2018-Apr-23 17:30N 54°00' E 009°18'4 8.8
2018-Apr-23 17:00N 53°57' E 009°14'4 8.2
2018-Apr-23 16:30N 53°54' E 009°09'0 0.0
2018-Apr-23 16:00N 53°54' E 009°09'1 1.6
2018-Apr-23 15:30N 53°53' E 009°08'0 0.8
2018-Apr-23 15:00N 53°53' E 009°07'0 0.1
2018-Apr-23 14:30N 53°53' E 009°07'1 1.0
2018-Apr-23 14:00N 53°53' E 009°06'0 0.4
2018-Apr-23 13:31N 53°53' E 009°06'2 4.5
2018-Apr-23 13:00N 53°52' E 009°02'4 7.6
2018-Apr-23 12:30N 53°51' E 008°56'4 7.4
2018-Apr-23 12:00N 53°50' E 008°50'3 6.5
2018-Apr-23 11:30N 53°51' E 008°45'3 6.2
2018-Apr-23 11:00N 53°54' E 008°42'3 6.1
2018-Apr-23 10:30N 53°56' E 008°39'3 5.8
2018-Apr-23 10:00N 53°58' E 008°35'3 6.8
2018-Apr-23 09:30N 53°58' E 008°29'3 6.4
2018-Apr-23 09:00N 53°59' E 008°24'4 7.2
2018-Apr-23 08:29N 53°60' E 008°17'4 8.6
2018-Apr-23 08:00N 53°59' E 008°10'4 8.4
2018-Apr-23 07:29N 53°58' E 008°03'4 8.8
2018-Apr-23 07:00N 53°57' E 007°56'9010.3
2018-Apr-22 22:15N 53°34' E 005°29'310.8
2018-Apr-22 22:00N 53°33' E 005°25'510.8
2018-Apr-22 21:30N 53°31' E 005°16'510.6
2018-Apr-22 21:00N 53°30' E 005°08'510.7
2018-Apr-22 20:30N 53°28' E 004°60'510.5
2018-Apr-22 20:00N 53°26' E 004°51'510.4
2018-Apr-22 19:30N 53°23' E 004°44'510.1
2018-Apr-22 19:00N 53°19' E 004°39'510.0
2018-Apr-22 18:30N 53°14' E 004°36'5 9.8
2018-Apr-22 18:00N 53°10' E 004°33'5 9.6
2018-Apr-22 17:30N 53°06' E 004°29'5 9.4
2018-Apr-22 17:00N 53°02' E 004°24'5 9.3
2018-Apr-22 16:30N 52°58' E 004°20'4 9.0
2018-Apr-22 16:00N 52°54' E 004°17'5 9.0
2018-Apr-22 15:30N 52°50' E 004°13'5 9.0
2018-Apr-22 14:59N 52°46' E 004°08'30 8.9
2018-Apr-22 11:40N 52°26' E 003°32'2 9.3
2018-Apr-22 11:28N 52°25' E 003°30'4 9.6
2018-Apr-22 11:00N 52°22' E 003°25'6 9.9
2018-Apr-22 10:24N 52°17' E 003°19'410.2
2018-Apr-22 10:00N 52°14' E 003°15'510.5
2018-Apr-22 09:29N 52°10' E 003°09'1510.8
2018-Apr-22 08:05N 51°58' E 002°54'1411.6
2018-Apr-22 06:54N 51°47' E 002°40'512.0
2018-Apr-22 06:30N 51°44' E 002°35'612.1
2018-Apr-22 06:00N 51°39' E 002°29'612.1
2018-Apr-22 05:30N 51°34' E 002°23'612.3
2018-Apr-22 05:00N 51°29' E 002°17'611.8
2018-Apr-22 04:30N 51°24' E 002°12'611.9
2018-Apr-22 04:00N 51°19' E 002°08'611.8
2018-Apr-22 03:30N 51°14' E 002°03'611.9
2018-Apr-22 03:00N 51°11' E 001°55'611.8
2018-Apr-22 02:30N 51°07' E 001°47'611.9
2018-Apr-22 02:00N 51°03' E 001°41'611.2
2018-Apr-22 01:29N 50°59' E 001°35'1010.0
2018-Apr-22 00:31N 50°50' E 001°27'3 9.5
2018-Apr-22 00:14N 50°48' E 001°26'3 9.4
2018-Apr-21 23:53N 50°45' E 001°25'4 9.0
2018-Apr-21 23:26N 50°41' E 001°22'5 9.3
2018-Apr-21 22:54N 50°37' E 001°17'4 9.5
2018-Apr-21 22:30N 50°35' E 001°12'10 9.4
2018-Apr-21 21:26N 50°29' E 000°60'5 9.0
2018-Apr-21 20:52N 50°27' E 000°52'4 9.2
2018-Apr-21 20:29N 50°26' E 000°47'7 9.0
2018-Apr-21 19:42N 50°24' E 000°36'2 8.9
2018-Apr-21 19:28N 50°24' E 000°33'4 8.9
2018-Apr-21 18:58N 50°23' E 000°26'5 8.8
2018-Apr-21 18:25N 50°21' E 000°19'4 8.7
2018-Apr-21 18:00N 50°21' E 000°14'4 8.8
2018-Apr-21 17:30N 50°20' E 000°07'4 9.0
2018-Apr-21 17:00N 50°19' W 000°00'5 9.1
2018-Apr-21 16:30N 50°17' W 000°07'5 9.3
2018-Apr-21 16:00N 50°16' W 000°14'5 9.5
2018-Apr-21 15:30N 50°15' W 000°21'5 9.9
2018-Apr-21 15:00N 50°13' W 000°29'510.5
2018-Apr-21 14:30N 50°12' W 000°36'611.2
2018-Apr-21 13:59N 50°10' W 000°45'612.0
2018-Apr-21 13:29N 50°08' W 000°54'612.5
2018-Apr-21 13:00N 50°06' W 001°03'612.9
2018-Apr-21 12:30N 50°05' W 001°12'713.2
2018-Apr-21 12:00N 50°03' W 001°22'713.5
2018-Apr-21 11:30N 50°02' W 001°33'713.6
2018-Apr-21 11:00N 50°00' W 001°43'713.4
2018-Apr-21 10:30N 49°59' W 001°53'613.1
2018-Apr-21 10:00N 49°57' W 002°03'612.4
2018-Apr-21 09:30N 49°55' W 002°12'1811.0
2018-Apr-21 07:51N 49°50' W 002°39'410.2
2018-Apr-21 07:30N 49°49' W 002°44'5 9.8
2018-Apr-21 07:00N 49°47' W 002°52'5 9.4
2018-Apr-21 06:30N 49°45' W 002°58'5 9.2
2018-Apr-21 06:00N 49°43' W 003°04'5 9.1
2018-Apr-21 05:30N 49°40' W 003°10'4 9.0
2018-Apr-21 05:00N 49°38' W 003°16'4 8.6
2018-Apr-21 04:30N 49°36' W 003°22'5 8.6
2018-Apr-21 03:59N 49°34' W 003°28'4 8.6
2018-Apr-21 03:28N 49°32' W 003°34'4 8.6
2018-Apr-21 02:58N 49°30' W 003°40'13 8.7
2018-Apr-21 01:30N 49°23' W 003°57'331 9.2
2018-Apr-19 13:34N 44°20' W 007°15'2 9.9
2018-Apr-19 13:24N 44°19' W 007°15'4 9.9
2018-Apr-19 13:00N 44°15' W 007°16'510.2
2018-Apr-19 12:28N 44°10' W 007°18'510.4
2018-Apr-19 12:00N 44°05' W 007°20'510.6
2018-Apr-19 11:29N 43°60' W 007°22'510.4
2018-Apr-19 11:00N 43°55' W 007°24'510.5
2018-Apr-19 10:30N 43°50' W 007°25'510.2
2018-Apr-19 10:00N 43°45' W 007°27'1 0.0
2018-Apr-17 16:06N 43°43' W 007°27'1 6.7
2018-Apr-17 16:00N 43°44' W 007°27'1 2.1
2018-Apr-17 15:30N 43°44' W 007°25'1 0.8
2018-Apr-17 14:32N 43°44' W 007°25'0 0.0
2018-Apr-17 14:26N 43°44' W 007°25'0 0.1
2018-Apr-17 13:59N 43°44' W 007°25'0 0.1
2018-Apr-17 13:17N 43°44' W 007°25'0 0.2
2018-Apr-17 12:58N 43°44' W 007°25'3 6.7
2018-Apr-17 12:30N 43°44' W 007°20'4 7.9
2018-Apr-17 12:00N 43°45' W 007°15'4610.5
2018-Apr-17 07:37N 43°39' W 006°12'110.6
2018-Apr-17 07:30N 43°39' W 006°10'510.5
2018-Apr-17 06:59N 43°38' W 006°03'  

Dump ship's entire track history